sensor_id;sensor_type;location;lat;lon;timestamp;pressure;altitude;pressure_sealevel;temperature;humidity
49311;BME280;35177;45.900;5.946;2023-08-30T00:00:07;97135.84;;;11.57;90.38
49311;BME280;35177;45.900;5.946;2023-08-30T00:02:33;97131.13;;;11.60;90.32
49311;BME280;35177;45.900;5.946;2023-08-30T00:05:02;97129.22;;;11.62;89.38
49311;BME280;35177;45.900;5.946;2023-08-30T00:07:28;97125.16;;;11.69;89.59
49311;BME280;35177;45.900;5.946;2023-08-30T00:09:54;97125.84;;;11.49;89.55
49311;BME280;35177;45.900;5.946;2023-08-30T00:12:22;97128.47;;;11.49;90.38
49311;BME280;35177;45.900;5.946;2023-08-30T00:14:48;97131.38;;;11.57;89.59
49311;BME280;35177;45.900;5.946;2023-08-30T00:17:13;97123.56;;;11.67;88.43
49311;BME280;35177;45.900;5.946;2023-08-30T00:19:40;97118.13;;;11.57;89.12
49311;BME280;35177;45.900;5.946;2023-08-30T00:22:05;97119.81;;;11.47;89.90
49311;BME280;35177;45.900;5.946;2023-08-30T00:24:35;97117.41;;;11.44;90.05
49311;BME280;35177;45.900;5.946;2023-08-30T00:27:01;97121.00;;;11.43;89.49
49311;BME280;35177;45.900;5.946;2023-08-30T00:29:28;97118.09;;;11.35;90.04
49311;BME280;35177;45.900;5.946;2023-08-30T00:31:53;97123.69;;;11.08;90.13
49311;BME280;35177;45.900;5.946;2023-08-30T00:34:19;97119.50;;;11.17;89.07
49311;BME280;35177;45.900;5.946;2023-08-30T00:36:44;97128.53;;;11.14;89.59
49311;BME280;35177;45.900;5.946;2023-08-30T00:39:10;97114.66;;;11.11;89.75
49311;BME280;35177;45.900;5.946;2023-08-30T00:41:35;97121.38;;;11.04;90.55
49311;BME280;35177;45.900;5.946;2023-08-30T00:44:00;97111.25;;;10.98;88.12
49311;BME280;35177;45.900;5.946;2023-08-30T00:46:27;97111.50;;;10.95;89.20
49311;BME280;35177;45.900;5.946;2023-08-30T00:48:53;97113.16;;;10.85;88.99
49311;BME280;35177;45.900;5.946;2023-08-30T00:51:18;97116.06;;;10.93;89.74
49311;BME280;35177;45.900;5.946;2023-08-30T00:53:44;97111.81;;;10.79;89.61
49311;BME280;35177;45.900;5.946;2023-08-30T00:56:10;97108.53;;;10.76;90.09
49311;BME280;35177;45.900;5.946;2023-08-30T00:58:37;97111.25;;;10.87;89.97
49311;BME280;35177;45.900;5.946;2023-08-30T01:01:04;97106.53;;;10.90;89.97
49311;BME280;35177;45.900;5.946;2023-08-30T01:03:32;97106.69;;;11.00;90.27
49311;BME280;35177;45.900;5.946;2023-08-30T01:05:57;97109.28;;;10.78;90.15
49311;BME280;35177;45.900;5.946;2023-08-30T01:08:23;97109.34;;;10.65;90.79
49311;BME280;35177;45.900;5.946;2023-08-30T01:13:30;97113.03;;;10.63;90.56
49311;BME280;35177;45.900;5.946;2023-08-30T01:15:56;97109.22;;;10.67;91.50
49311;BME280;35177;45.900;5.946;2023-08-30T01:18:26;97105.09;;;10.63;92.84
49311;BME280;35177;45.900;5.946;2023-08-30T01:20:52;97097.69;;;10.68;93.40
49311;BME280;35177;45.900;5.946;2023-08-30T01:23:40;97100.94;;;10.71;91.58
49311;BME280;35177;45.900;5.946;2023-08-30T01:28:33;97091.50;;;10.56;91.08
49311;BME280;35177;45.900;5.946;2023-08-30T01:31:01;97094.91;;;10.45;90.37
49311;BME280;35177;45.900;5.946;2023-08-30T01:33:28;97092.38;;;10.20;89.23
49311;BME280;35177;45.900;5.946;2023-08-30T01:35:59;97090.72;;;10.19;89.90
49311;BME280;35177;45.900;5.946;2023-08-30T01:38:29;97087.44;;;10.39;90.87
49311;BME280;35177;45.900;5.946;2023-08-30T01:40:56;97080.53;;;10.26;89.44
49311;BME280;35177;45.900;5.946;2023-08-30T01:43:24;97080.94;;;10.20;89.08
49311;BME280;35177;45.900;5.946;2023-08-30T01:45:51;97091.69;;;9.93;89.86
49311;BME280;35177;45.900;5.946;2023-08-30T01:48:17;97085.75;;;10.15;90.37
49311;BME280;35177;45.900;5.946;2023-08-30T01:50:44;97078.63;;;10.15;89.82
49311;BME280;35177;45.900;5.946;2023-08-30T01:53:11;97076.16;;;10.01;88.48
49311;BME280;35177;45.900;5.946;2023-08-30T01:55:37;97072.94;;;10.09;88.87
49311;BME280;35177;45.900;5.946;2023-08-30T01:58:04;97076.84;;;10.16;90.00
49311;BME280;35177;45.900;5.946;2023-08-30T02:00:29;97084.09;;;10.01;88.99
49311;BME280;35177;45.900;5.946;2023-08-30T02:02:56;97086.00;;;9.87;89.29
49311;BME280;35177;45.900;5.946;2023-08-30T02:05:22;97082.50;;;9.86;90.26
49311;BME280;35177;45.900;5.946;2023-08-30T02:10:34;97079.34;;;9.81;90.41
49311;BME280;35177;45.900;5.946;2023-08-30T02:13:01;97082.31;;;9.76;90.06
49311;BME280;35177;45.900;5.946;2023-08-30T02:15:30;97070.31;;;9.60;89.80
49311;BME280;35177;45.900;5.946;2023-08-30T02:17:57;97084.69;;;9.56;89.81
49311;BME280;35177;45.900;5.946;2023-08-30T02:20:23;97078.44;;;9.69;91.73
49311;BME280;35177;45.900;5.946;2023-08-30T02:22:48;97083.38;;;9.74;90.90
49311;BME280;35177;45.900;5.946;2023-08-30T02:25:14;97080.53;;;9.77;91.58
49311;BME280;35177;45.900;5.946;2023-08-30T02:27:39;97077.22;;;9.86;90.38
49311;BME280;35177;45.900;5.946;2023-08-30T02:30:07;97078.47;;;9.93;88.88
49311;BME280;35177;45.900;5.946;2023-08-30T02:32:32;97091.50;;;9.84;90.96
49311;BME280;35177;45.900;5.946;2023-08-30T02:34:58;97085.38;;;9.83;92.42
49311;BME280;35177;45.900;5.946;2023-08-30T02:37:24;97089.19;;;9.66;91.22
49311;BME280;35177;45.900;5.946;2023-08-30T02:39:49;97085.50;;;9.69;90.73
49311;BME280;35177;45.900;5.946;2023-08-30T02:42:14;97087.66;;;9.51;91.85
49311;BME280;35177;45.900;5.946;2023-08-30T02:44:40;97088.69;;;9.49;89.68
49311;BME280;35177;45.900;5.946;2023-08-30T02:47:05;97089.75;;;9.59;89.96
49311;BME280;35177;45.900;5.946;2023-08-30T02:49:31;97084.22;;;9.87;91.11
49311;BME280;35177;45.900;5.946;2023-08-30T02:51:56;97080.78;;;9.98;91.41
49311;BME280;35177;45.900;5.946;2023-08-30T02:54:22;97079.94;;;9.97;91.31
49311;BME280;35177;45.900;5.946;2023-08-30T02:56:48;97086.09;;;9.98;90.61
49311;BME280;35177;45.900;5.946;2023-08-30T02:59:14;97074.47;;;9.88;90.46
49311;BME280;35177;45.900;5.946;2023-08-30T03:01:39;97081.91;;;9.83;90.87
49311;BME280;35177;45.900;5.946;2023-08-30T03:04:05;97082.13;;;9.67;91.41
49311;BME280;35177;45.900;5.946;2023-08-30T03:06:32;97081.50;;;9.51;89.55
49311;BME280;35177;45.900;5.946;2023-08-30T03:08:58;97087.66;;;9.51;90.64
49311;BME280;35177;45.900;5.946;2023-08-30T03:11:23;97088.50;;;9.52;90.52
49311;BME280;35177;45.900;5.946;2023-08-30T03:13:49;97077.09;;;9.64;91.24
49311;BME280;35177;45.900;5.946;2023-08-30T03:16:16;97076.31;;;9.62;92.75
49311;BME280;35177;45.900;5.946;2023-08-30T03:18:42;97070.72;;;9.66;90.45
49311;BME280;35177;45.900;5.946;2023-08-30T03:21:08;97077.09;;;9.51;90.34
49311;BME280;35177;45.900;5.946;2023-08-30T03:23:34;97073.72;;;9.37;91.11
49311;BME280;35177;45.900;5.946;2023-08-30T03:26:08;97078.66;;;9.41;90.40
49311;BME280;35177;45.900;5.946;2023-08-30T03:28:33;97080.78;;;9.49;89.85
49311;BME280;35177;45.900;5.946;2023-08-30T03:30:59;97074.97;;;9.56;89.96
49311;BME280;35177;45.900;5.946;2023-08-30T03:33:24;97072.72;;;9.63;90.39
49311;BME280;35177;45.900;5.946;2023-08-30T03:35:49;97066.66;;;9.86;91.53
49311;BME280;35177;45.900;5.946;2023-08-30T03:38:15;97075.66;;;9.84;90.36
49311;BME280;35177;45.900;5.946;2023-08-30T03:40:40;97076.22;;;9.63;90.37
49311;BME280;35177;45.900;5.946;2023-08-30T03:43:06;97075.59;;;9.60;91.27
49311;BME280;35177;45.900;5.946;2023-08-30T03:45:35;97072.53;;;9.53;91.00
49311;BME280;35177;45.900;5.946;2023-08-30T03:48:00;97085.53;;;9.19;91.43
49311;BME280;35177;45.900;5.946;2023-08-30T03:50:26;97091.56;;;9.21;92.49
49311;BME280;35177;45.900;5.946;2023-08-30T03:52:51;97084.94;;;9.15;90.56
49311;BME280;35177;45.900;5.946;2023-08-30T03:55:17;97089.34;;;8.89;90.50
49311;BME280;35177;45.900;5.946;2023-08-30T03:57:42;97084.88;;;8.77;90.49
49311;BME280;35177;45.900;5.946;2023-08-30T04:00:08;97080.22;;;8.68;91.11
49311;BME280;35177;45.900;5.946;2023-08-30T04:02:33;97083.75;;;8.94;90.41
49311;BME280;35177;45.900;5.946;2023-08-30T04:04:59;97078.78;;;8.89;90.51
49311;BME280;35177;45.900;5.946;2023-08-30T04:07:24;97086.91;;;8.99;89.17
49311;BME280;35177;45.900;5.946;2023-08-30T04:09:50;97099.06;;;8.62;90.08
49311;BME280;35177;45.900;5.946;2023-08-30T04:12:15;97090.66;;;8.70;90.67
49311;BME280;35177;45.900;5.946;2023-08-30T04:14:40;97093.72;;;8.76;91.06
49311;BME280;35177;45.900;5.946;2023-08-30T04:17:06;97087.16;;;8.57;92.68
49311;BME280;35177;45.900;5.946;2023-08-30T04:19:31;97092.59;;;8.80;95.92
49311;BME280;35177;45.900;5.946;2023-08-30T04:21:57;97093.66;;;8.90;92.17
49311;BME280;35177;45.900;5.946;2023-08-30T04:24:22;97098.84;;;9.04;93.85
49311;BME280;35177;45.900;5.946;2023-08-30T04:26:47;97100.53;;;9.05;93.57
49311;BME280;35177;45.900;5.946;2023-08-30T04:29:17;97105.41;;;8.99;92.76
49311;BME280;35177;45.900;5.946;2023-08-30T04:31:43;97103.88;;;8.95;92.72
49311;BME280;35177;45.900;5.946;2023-08-30T04:34:09;97101.00;;;8.85;93.52
49311;BME280;35177;45.900;5.946;2023-08-30T04:36:34;97099.38;;;8.58;92.61
49311;BME280;35177;45.900;5.946;2023-08-30T04:38:59;97089.19;;;8.66;92.45
49311;BME280;35177;45.900;5.946;2023-08-30T04:41:25;97094.53;;;8.64;92.02
49311;BME280;35177;45.900;5.946;2023-08-30T04:43:50;97094.94;;;8.58;90.75
49311;BME280;35177;45.900;5.946;2023-08-30T04:46:16;97104.94;;;8.53;90.52
49311;BME280;35177;45.900;5.946;2023-08-30T04:48:41;97102.88;;;8.58;90.67
49311;BME280;35177;45.900;5.946;2023-08-30T04:51:06;97108.63;;;8.77;90.86
49311;BME280;35177;45.900;5.946;2023-08-30T04:53:32;97115.28;;;8.95;90.13
49311;BME280;35177;45.900;5.946;2023-08-30T04:55:57;97109.69;;;8.87;90.63
49311;BME280;35177;45.900;5.946;2023-08-30T04:58:23;97110.00;;;8.95;89.40
49311;BME280;35177;45.900;5.946;2023-08-30T05:00:48;97112.66;;;8.95;88.65
49311;BME280;35177;45.900;5.946;2023-08-30T05:03:15;97112.09;;;8.78;90.28
49311;BME280;35177;45.900;5.946;2023-08-30T05:05:44;97107.91;;;9.00;89.49
49311;BME280;35177;45.900;5.946;2023-08-30T05:08:10;97112.78;;;9.06;90.21
49311;BME280;35177;45.900;5.946;2023-08-30T05:10:36;97105.88;;;8.79;91.16
49311;BME280;35177;45.900;5.946;2023-08-30T05:13:02;97108.13;;;8.85;90.75
49311;BME280;35177;45.900;5.946;2023-08-30T05:15:29;97115.59;;;8.91;91.80
49311;BME280;35177;45.900;5.946;2023-08-30T05:17:54;97119.75;;;9.07;90.63
49311;BME280;35177;45.900;5.946;2023-08-30T05:20:19;97119.00;;;9.05;89.58
49311;BME280;35177;45.900;5.946;2023-08-30T05:22:45;97113.94;;;9.02;90.58
49311;BME280;35177;45.900;5.946;2023-08-30T05:25:10;97112.56;;;9.09;91.03
49311;BME280;35177;45.900;5.946;2023-08-30T05:27:36;97119.13;;;9.17;90.13
49311;BME280;35177;45.900;5.946;2023-08-30T05:30:01;97115.31;;;9.21;91.31
49311;BME280;35177;45.900;5.946;2023-08-30T05:32:28;97108.59;;;9.29;91.17
49311;BME280;35177;45.900;5.946;2023-08-30T05:34:53;97112.38;;;9.38;92.60
49311;BME280;35177;45.900;5.946;2023-08-30T05:37:19;97124.22;;;9.45;92.70
49311;BME280;35177;45.900;5.946;2023-08-30T05:39:44;97121.56;;;9.45;92.59
49311;BME280;35177;45.900;5.946;2023-08-30T05:42:09;97126.13;;;9.43;92.53
49311;BME280;35177;45.900;5.946;2023-08-30T05:44:35;97128.31;;;9.49;92.35
49311;BME280;35177;45.900;5.946;2023-08-30T05:47:00;97129.69;;;9.67;92.09
49311;BME280;35177;45.900;5.946;2023-08-30T05:49:26;97130.63;;;9.78;90.86
49311;BME280;35177;45.900;5.946;2023-08-30T05:51:51;97136.47;;;9.71;91.08
49311;BME280;35177;45.900;5.946;2023-08-30T05:54:16;97128.19;;;9.88;90.68
49311;BME280;35177;45.900;5.946;2023-08-30T05:56:42;97123.41;;;9.93;90.12
49311;BME280;35177;45.900;5.946;2023-08-30T05:59:07;97126.06;;;9.93;90.09
49311;BME280;35177;45.900;5.946;2023-08-30T06:01:33;97136.63;;;9.93;90.62
49311;BME280;35177;45.900;5.946;2023-08-30T06:03:58;97136.31;;;9.98;91.26
49311;BME280;35177;45.900;5.946;2023-08-30T06:06:23;97132.81;;;9.97;91.05
49311;BME280;35177;45.900;5.946;2023-08-30T06:08:49;97136.09;;;10.01;91.80
49311;BME280;35177;45.900;5.946;2023-08-30T06:11:15;97140.41;;;10.14;90.87
49311;BME280;35177;45.900;5.946;2023-08-30T06:13:40;97143.28;;;10.11;90.70
49311;BME280;35177;45.900;5.946;2023-08-30T06:16:06;97136.19;;;9.99;91.46
49311;BME280;35177;45.900;5.946;2023-08-30T06:18:31;97145.72;;;10.14;91.70
49311;BME280;35177;45.900;5.946;2023-08-30T06:20:57;97139.63;;;10.37;90.70
49311;BME280;35177;45.900;5.946;2023-08-30T06:23:23;97133.94;;;10.31;91.74
49311;BME280;35177;45.900;5.946;2023-08-30T06:25:58;97136.91;;;10.50;90.54
49311;BME280;35177;45.900;5.946;2023-08-30T06:28:23;97135.56;;;10.44;91.74
49311;BME280;35177;45.900;5.946;2023-08-30T06:30:49;97131.41;;;10.53;90.74
49311;BME280;35177;45.900;5.946;2023-08-30T06:33:14;97137.72;;;10.63;91.52
49311;BME280;35177;45.900;5.946;2023-08-30T06:35:40;97135.78;;;10.65;91.61
49311;BME280;35177;45.900;5.946;2023-08-30T06:38:06;97147.97;;;10.68;92.19
49311;BME280;35177;45.900;5.946;2023-08-30T06:40:32;97153.06;;;10.82;91.36
49311;BME280;35177;45.900;5.946;2023-08-30T06:42:58;97148.28;;;10.87;91.32
49311;BME280;35177;45.900;5.946;2023-08-30T06:45:24;97137.47;;;10.90;91.61
49311;BME280;35177;45.900;5.946;2023-08-30T06:47:50;97142.38;;;10.60;94.27
49311;BME280;35177;45.900;5.946;2023-08-30T06:50:17;97144.09;;;10.48;95.86
49311;BME280;35177;45.900;5.946;2023-08-30T06:52:42;97144.03;;;10.50;96.02
49311;BME280;35177;45.900;5.946;2023-08-30T06:55:07;97154.88;;;10.58;95.09
49311;BME280;35177;45.900;5.946;2023-08-30T06:57:33;97153.69;;;10.85;95.07
49311;BME280;35177;45.900;5.946;2023-08-30T06:59:58;97161.06;;;10.93;93.54
49311;BME280;35177;45.900;5.946;2023-08-30T07:02:30;97149.28;;;10.97;93.20
49311;BME280;35177;45.900;5.946;2023-08-30T07:04:56;97158.97;;;11.09;93.56
49311;BME280;35177;45.900;5.946;2023-08-30T07:07:21;97152.72;;;11.10;94.95
49311;BME280;35177;45.900;5.946;2023-08-30T07:09:47;97151.28;;;11.17;93.80
49311;BME280;35177;45.900;5.946;2023-08-30T07:12:12;97155.34;;;11.10;93.45
49311;BME280;35177;45.900;5.946;2023-08-30T07:14:37;97158.78;;;11.34;91.76
49311;BME280;35177;45.900;5.946;2023-08-30T07:17:03;97163.44;;;11.54;91.49
49311;BME280;35177;45.900;5.946;2023-08-30T07:19:28;97166.94;;;11.66;90.97
49311;BME280;35177;45.900;5.946;2023-08-30T07:21:54;97164.38;;;11.64;89.80
49311;BME280;35177;45.900;5.946;2023-08-30T07:24:19;97164.69;;;11.72;90.54
49311;BME280;35177;45.900;5.946;2023-08-30T07:26:45;97160.72;;;11.89;90.22
49311;BME280;35177;45.900;5.946;2023-08-30T07:29:10;97161.44;;;12.02;88.82
49311;BME280;35177;45.900;5.946;2023-08-30T07:31:35;97156.38;;;12.10;89.33
49311;BME280;35177;45.900;5.946;2023-08-30T07:34:01;97158.41;;;12.18;88.44
49311;BME280;35177;45.900;5.946;2023-08-30T07:36:27;97165.78;;;12.25;87.86
49311;BME280;35177;45.900;5.946;2023-08-30T07:38:53;97161.16;;;12.38;88.08
49311;BME280;35177;45.900;5.946;2023-08-30T07:41:18;97164.63;;;12.50;86.57
49311;BME280;35177;45.900;5.946;2023-08-30T07:43:44;97170.22;;;12.47;86.12
49311;BME280;35177;45.900;5.946;2023-08-30T07:46:09;97163.56;;;12.52;85.51
49311;BME280;35177;45.900;5.946;2023-08-30T07:48:34;97172.72;;;12.60;85.09
49311;BME280;35177;45.900;5.946;2023-08-30T07:51:00;97172.72;;;12.71;85.75
49311;BME280;35177;45.900;5.946;2023-08-30T07:53:25;97162.41;;;12.77;84.53
49311;BME280;35177;45.900;5.946;2023-08-30T07:55:51;97160.84;;;12.75;85.76
49311;BME280;35177;45.900;5.946;2023-08-30T07:58:19;97160.38;;;12.70;87.15
49311;BME280;35177;45.900;5.946;2023-08-30T08:00:44;97161.25;;;12.70;86.07
49311;BME280;35177;45.900;5.946;2023-08-30T08:03:10;97155.56;;;12.75;85.78
49311;BME280;35177;45.900;5.946;2023-08-30T08:05:36;97158.81;;;12.99;85.30
49311;BME280;35177;45.900;5.946;2023-08-30T08:08:01;97151.47;;;13.02;85.36
49311;BME280;35177;45.900;5.946;2023-08-30T08:10:31;97154.59;;;12.96;84.73
49311;BME280;35177;45.900;5.946;2023-08-30T08:12:56;97150.25;;;13.06;84.39
49311;BME280;35177;45.900;5.946;2023-08-30T08:15:22;97150.91;;;13.19;83.64
49311;BME280;35177;45.900;5.946;2023-08-30T08:17:47;97153.66;;;13.29;83.48
49311;BME280;35177;45.900;5.946;2023-08-30T08:20:12;97146.22;;;13.44;84.42
49311;BME280;35177;45.900;5.946;2023-08-30T08:22:39;97144.56;;;13.52;84.71
49311;BME280;35177;45.900;5.946;2023-08-30T08:25:04;97139.31;;;13.62;83.21
49311;BME280;35177;45.900;5.946;2023-08-30T08:27:30;97148.66;;;13.77;83.78
49311;BME280;35177;45.900;5.946;2023-08-30T08:29:55;97139.88;;;13.86;82.82
49311;BME280;35177;45.900;5.946;2023-08-30T08:32:21;97146.81;;;13.98;82.50
49311;BME280;35177;45.900;5.946;2023-08-30T08:34:46;97151.69;;;13.93;80.52
49311;BME280;35177;45.900;5.946;2023-08-30T08:37:11;97152.19;;;14.08;81.79
49311;BME280;35177;45.900;5.946;2023-08-30T08:39:37;97161.13;;;14.07;78.84
49311;BME280;35177;45.900;5.946;2023-08-30T08:42:03;97157.22;;;14.11;78.33
49311;BME280;35177;45.900;5.946;2023-08-30T08:44:32;97154.16;;;14.15;76.65
49311;BME280;35177;45.900;5.946;2023-08-30T08:46:58;97164.53;;;14.18;75.84
49311;BME280;35177;45.900;5.946;2023-08-30T08:49:25;97157.56;;;14.27;75.96
49311;BME280;35177;45.900;5.946;2023-08-30T08:51:53;97164.22;;;14.32;75.40
49311;BME280;35177;45.900;5.946;2023-08-30T08:54:19;97160.19;;;14.38;76.29
49311;BME280;35177;45.900;5.946;2023-08-30T08:56:45;97159.31;;;14.37;76.88
49311;BME280;35177;45.900;5.946;2023-08-30T08:59:11;97156.16;;;14.63;76.14
49311;BME280;35177;45.900;5.946;2023-08-30T09:01:38;97154.50;;;14.81;75.46
49311;BME280;35177;45.900;5.946;2023-08-30T09:04:10;97159.00;;;14.80;75.32
49311;BME280;35177;45.900;5.946;2023-08-30T09:06:37;97160.00;;;14.79;74.31
49311;BME280;35177;45.900;5.946;2023-08-30T09:09:03;97157.47;;;15.06;76.46
49311;BME280;35177;45.900;5.946;2023-08-30T09:11:30;97156.38;;;15.09;74.33
49311;BME280;35177;45.900;5.946;2023-08-30T09:13:55;97154.56;;;15.09;74.05
49311;BME280;35177;45.900;5.946;2023-08-30T09:16:20;97155.53;;;15.18;73.88
49311;BME280;35177;45.900;5.946;2023-08-30T09:18:57;97150.34;;;15.26;73.90
49311;BME280;35177;45.900;5.946;2023-08-30T09:21:22;97141.88;;;15.69;72.34
49311;BME280;35177;45.900;5.946;2023-08-30T09:24:05;97142.75;;;15.50;72.37
49311;BME280;35177;45.900;5.946;2023-08-30T09:26:32;97142.03;;;15.67;72.14
49311;BME280;35177;45.900;5.946;2023-08-30T09:29:08;97142.03;;;16.14;71.25
49311;BME280;35177;45.900;5.946;2023-08-30T09:31:34;97143.38;;;15.90;71.04
49311;BME280;35177;45.900;5.946;2023-08-30T09:34:00;97138.16;;;15.98;71.56
49311;BME280;35177;45.900;5.946;2023-08-30T09:36:32;97132.34;;;16.13;71.70
49311;BME280;35177;45.900;5.946;2023-08-30T09:38:57;97133.47;;;16.10;69.41
49311;BME280;35177;45.900;5.946;2023-08-30T09:41:24;97133.22;;;16.04;70.62
49311;BME280;35177;45.900;5.946;2023-08-30T09:43:50;97133.59;;;16.18;70.10
49311;BME280;35177;45.900;5.946;2023-08-30T09:46:15;97135.22;;;16.29;69.85
49311;BME280;35177;45.900;5.946;2023-08-30T09:48:41;97126.63;;;16.35;68.17
49311;BME280;35177;45.900;5.946;2023-08-30T09:51:08;97112.50;;;16.52;68.63
49311;BME280;35177;45.900;5.946;2023-08-30T09:53:43;97118.41;;;16.73;67.73
49311;BME280;35177;45.900;5.946;2023-08-30T09:56:12;97111.84;;;16.85;69.24
49311;BME280;35177;45.900;5.946;2023-08-30T09:58:38;97113.09;;;17.26;68.21
49311;BME280;35177;45.900;5.946;2023-08-30T10:01:05;97114.69;;;17.36;66.44
49311;BME280;35177;45.900;5.946;2023-08-30T10:03:31;97107.03;;;17.42;65.82
49311;BME280;35177;45.900;5.946;2023-08-30T10:05:57;97113.38;;;17.58;64.88
49311;BME280;35177;45.900;5.946;2023-08-30T10:08:25;97112.06;;;17.62;65.47
49311;BME280;35177;45.900;5.946;2023-08-30T10:10:57;97106.25;;;17.67;64.50
49311;BME280;35177;45.900;5.946;2023-08-30T10:13:24;97108.63;;;17.52;65.38
49311;BME280;35177;45.900;5.946;2023-08-30T10:15:53;97112.28;;;17.69;66.17
49311;BME280;35177;45.900;5.946;2023-08-30T10:18:22;97110.75;;;17.92;64.86
49311;BME280;35177;45.900;5.946;2023-08-30T10:20:54;97101.88;;;18.25;62.70
49311;BME280;35177;45.900;5.946;2023-08-30T10:23:21;97100.59;;;18.37;62.83
49311;BME280;35177;45.900;5.946;2023-08-30T10:25:48;97107.19;;;18.17;61.88
49311;BME280;35177;45.900;5.946;2023-08-30T10:28:15;97102.03;;;18.57;61.78
49311;BME280;35177;45.900;5.946;2023-08-30T10:30:42;97094.41;;;18.79;61.69
49311;BME280;35177;45.900;5.946;2023-08-30T10:33:14;97094.84;;;18.66;59.91
49311;BME280;35177;45.900;5.946;2023-08-30T10:35:48;97086.06;;;18.98;59.42
49311;BME280;35177;45.900;5.946;2023-08-30T10:38:24;97088.25;;;19.26;57.95
49311;BME280;35177;45.900;5.946;2023-08-30T10:40:51;97080.06;;;19.44;58.20
49311;BME280;35177;45.900;5.946;2023-08-30T10:43:16;97076.03;;;19.64;55.41
49311;BME280;35177;45.900;5.946;2023-08-30T10:45:41;97073.16;;;19.66;58.22
49311;BME280;35177;45.900;5.946;2023-08-30T10:48:07;97070.97;;;19.61;56.22
49311;BME280;35177;45.900;5.946;2023-08-30T10:50:33;97067.97;;;19.64;54.87
49311;BME280;35177;45.900;5.946;2023-08-30T10:53:00;97072.94;;;19.91;53.46
49311;BME280;35177;45.900;5.946;2023-08-30T10:55:25;97061.78;;;20.19;54.11
49311;BME280;35177;45.900;5.946;2023-08-30T10:58:01;97068.88;;;20.12;52.15
49311;BME280;35177;45.900;5.946;2023-08-30T11:00:29;97067.88;;;20.04;52.74
49311;BME280;35177;45.900;5.946;2023-08-30T11:02:55;97064.91;;;19.83;54.03
49311;BME280;35177;45.900;5.946;2023-08-30T11:05:22;97064.69;;;20.09;52.97
49311;BME280;35177;45.900;5.946;2023-08-30T11:07:52;97059.59;;;20.30;49.52
49311;BME280;35177;45.900;5.946;2023-08-30T11:10:18;97059.97;;;20.58;48.19
49311;BME280;35177;45.900;5.946;2023-08-30T11:12:45;97064.59;;;20.72;48.54
49311;BME280;35177;45.900;5.946;2023-08-30T11:15:12;97065.47;;;20.64;49.11
49311;BME280;35177;45.900;5.946;2023-08-30T11:17:41;97068.56;;;21.29;50.83
49311;BME280;35177;45.900;5.946;2023-08-30T11:20:09;97062.81;;;20.26;49.47
49311;BME280;35177;45.900;5.946;2023-08-30T11:22:45;97062.63;;;20.27;48.65
49311;BME280;35177;45.900;5.946;2023-08-30T11:25:12;97059.84;;;20.43;48.30
49311;BME280;35177;45.900;5.946;2023-08-30T11:27:38;97068.28;;;20.71;50.11
49311;BME280;35177;45.900;5.946;2023-08-30T11:30:05;97072.38;;;20.59;47.47
49311;BME280;35177;45.900;5.946;2023-08-30T11:32:49;97062.75;;;20.95;47.56
49311;BME280;35177;45.900;5.946;2023-08-30T11:35:16;97060.94;;;20.88;47.70
49311;BME280;35177;45.900;5.946;2023-08-30T11:37:43;97068.25;;;21.02;47.48
49311;BME280;35177;45.900;5.946;2023-08-30T11:40:11;97056.75;;;20.85;45.34
49311;BME280;35177;45.900;5.946;2023-08-30T11:42:36;97049.59;;;21.00;46.42
49311;BME280;35177;45.900;5.946;2023-08-30T11:45:02;97059.88;;;21.42;45.81
49311;BME280;35177;45.900;5.946;2023-08-30T11:47:29;97056.53;;;21.40;45.31
49311;BME280;35177;45.900;5.946;2023-08-30T11:49:57;97057.13;;;21.50;45.58
49311;BME280;35177;45.900;5.946;2023-08-30T11:52:25;97047.22;;;21.05;47.28
49311;BME280;35177;45.900;5.946;2023-08-30T11:54:51;97045.16;;;20.62;46.51
49311;BME280;35177;45.900;5.946;2023-08-30T11:57:16;97038.63;;;21.10;45.27
49311;BME280;35177;45.900;5.946;2023-08-30T11:59:42;97038.75;;;21.54;45.49
49311;BME280;35177;45.900;5.946;2023-08-30T12:02:08;97031.84;;;22.03;45.34
49311;BME280;35177;45.900;5.946;2023-08-30T12:04:41;97025.53;;;21.96;42.72
49311;BME280;35177;45.900;5.946;2023-08-30T12:07:07;97034.41;;;21.82;43.03
49311;BME280;35177;45.900;5.946;2023-08-30T12:09:32;97040.03;;;21.43;44.56
49311;BME280;35177;45.900;5.946;2023-08-30T12:12:09;97038.63;;;21.10;44.01
49311;BME280;35177;45.900;5.946;2023-08-30T12:14:38;97032.72;;;21.66;42.18
49311;BME280;35177;45.900;5.946;2023-08-30T12:17:04;97033.66;;;21.59;45.19
49311;BME280;35177;45.900;5.946;2023-08-30T12:19:31;97040.59;;;21.16;43.92
49311;BME280;35177;45.900;5.946;2023-08-30T12:22:03;97037.28;;;21.66;42.87
49311;BME280;35177;45.900;5.946;2023-08-30T12:24:45;97042.00;;;21.64;42.91
49311;BME280;35177;45.900;5.946;2023-08-30T12:27:12;97042.78;;;21.35;46.39
49311;BME280;35177;45.900;5.946;2023-08-30T12:29:37;97047.22;;;21.05;44.04
49311;BME280;35177;45.900;5.946;2023-08-30T12:32:03;97047.44;;;20.96;46.77
49311;BME280;35177;45.900;5.946;2023-08-30T12:34:29;97038.94;;;20.84;45.77
49311;BME280;35177;45.900;5.946;2023-08-30T12:36:54;97037.38;;;21.58;44.94
49311;BME280;35177;45.900;5.946;2023-08-30T12:39:20;97034.00;;;22.07;44.05
49311;BME280;35177;45.900;5.946;2023-08-30T12:41:45;97036.16;;;21.97;42.01
49311;BME280;35177;45.900;5.946;2023-08-30T12:44:11;97033.47;;;21.75;43.69
49311;BME280;35177;45.900;5.946;2023-08-30T12:46:36;97034.28;;;21.46;44.94
49311;BME280;35177;45.900;5.946;2023-08-30T12:49:01;97042.03;;;21.26;44.16
49311;BME280;35177;45.900;5.946;2023-08-30T12:51:27;97043.47;;;21.14;44.83
49311;BME280;35177;45.900;5.946;2023-08-30T12:53:54;97041.38;;;21.24;46.18
49311;BME280;35177;45.900;5.946;2023-08-30T12:56:19;97047.81;;;20.93;48.54
49311;BME280;35177;45.900;5.946;2023-08-30T12:58:45;97047.59;;;20.71;47.80
49311;BME280;35177;45.900;5.946;2023-08-30T13:01:10;97043.19;;;20.78;47.67
49311;BME280;35177;45.900;5.946;2023-08-30T13:03:36;97046.00;;;20.62;47.67
49311;BME280;35177;45.900;5.946;2023-08-30T13:06:01;97040.06;;;20.67;49.77